sensor_id;sensor_type;location;lat;lon;timestamp;pressure;altitude;pressure_sealevel;temperature;humidity
17525;BME280;40431;52.198;9.902;2024-01-27T00:01:51;102123.09;;;4.48;100.00
17525;BME280;40431;52.198;9.902;2024-01-27T00:04:19;102129.38;;;4.47;100.00
17525;BME280;40431;52.198;9.902;2024-01-27T00:06:48;102130.28;;;4.46;100.00
17525;BME280;40431;52.198;9.902;2024-01-27T00:09:18;102140.13;;;4.47;100.00
17525;BME280;40431;52.198;9.902;2024-01-27T00:11:46;102133.84;;;4.45;100.00
17525;BME280;40431;52.198;9.902;2024-01-27T00:14:19;102140.97;;;4.53;100.00
17525;BME280;40431;52.198;9.902;2024-01-27T00:16:47;102140.13;;;4.47;100.00
17525;BME280;40431;52.198;9.902;2024-01-27T00:19:15;102142.84;;;4.44;100.00
17525;BME280;40431;52.198;9.902;2024-01-27T00:21:46;102152.66;;;4.47;100.00
17525;BME280;40431;52.198;9.902;2024-01-27T00:24:14;102155.34;;;4.45;100.00
17525;BME280;40431;52.198;9.902;2024-01-27T00:26:43;102158.97;;;4.41;100.00
17525;BME280;40431;52.198;9.902;2024-01-27T00:29:11;102158.97;;;4.44;100.00
17525;BME280;40431;52.198;9.902;2024-01-27T00:31:40;102163.44;;;4.44;100.00
17525;BME280;40431;52.198;9.902;2024-01-27T00:34:08;102154.44;;;4.46;100.00
17525;BME280;40431;52.198;9.902;2024-01-27T00:36:36;102146.44;;;4.43;100.00
17525;BME280;40431;52.198;9.902;2024-01-27T00:39:03;102153.59;;;4.41;100.00
17525;BME280;40431;52.198;9.902;2024-01-27T00:41:35;102159.78;;;4.48;100.00
17525;BME280;40431;52.198;9.902;2024-01-27T00:44:03;102162.56;;;4.42;100.00
17525;BME280;40431;52.198;9.902;2024-01-27T00:46:31;102159.00;;;4.38;100.00
17525;BME280;40431;52.198;9.902;2024-01-27T00:49:03;102172.47;;;4.37;100.00
17525;BME280;40431;52.198;9.902;2024-01-27T00:51:33;102168.00;;;4.34;100.00
17525;BME280;40431;52.198;9.902;2024-01-27T00:54:03;102176.91;;;4.36;100.00
17525;BME280;40431;52.198;9.902;2024-01-27T00:56:36;102175.13;;;4.38;100.00
17525;BME280;40431;52.198;9.902;2024-01-27T00:59:04;102182.25;;;4.42;100.00
17525;BME280;40431;52.198;9.902;2024-01-27T01:01:32;102178.69;;;4.40;100.00
17525;BME280;40431;52.198;9.902;2024-01-27T01:04:00;102189.41;;;4.43;100.00
17525;BME280;40431;52.198;9.902;2024-01-27T01:06:33;102184.06;;;4.40;100.00
17525;BME280;40431;52.198;9.902;2024-01-27T01:09:01;102176.91;;;4.39;100.00
17525;BME280;40431;52.198;9.902;2024-01-27T01:11:31;102184.06;;;4.40;100.00
17525;BME280;40431;52.198;9.902;2024-01-27T01:13:58;102185.81;;;4.44;100.00
17525;BME280;40431;52.198;9.902;2024-01-27T01:16:27;102189.38;;;4.46;100.00
17525;BME280;40431;52.198;9.902;2024-01-27T01:18:58;102171.47;;;4.48;100.00
17525;BME280;40431;52.198;9.902;2024-01-27T01:21:27;102175.09;;;4.41;100.00
17525;BME280;40431;52.198;9.902;2024-01-27T01:24:00;102184.00;;;4.45;100.00
17525;BME280;40431;52.198;9.902;2024-01-27T01:26:27;102176.88;;;4.42;100.00
17525;BME280;40431;52.198;9.902;2024-01-27T01:28:55;102184.94;;;4.41;100.00
17525;BME280;40431;52.198;9.902;2024-01-27T01:31:22;102183.16;;;4.40;100.00
17525;BME280;40431;52.198;9.902;2024-01-27T01:33:50;102181.47;;;4.31;100.00
17525;BME280;40431;52.198;9.902;2024-01-27T01:36:18;102194.03;;;4.26;100.00
17525;BME280;40431;52.198;9.902;2024-01-27T01:38:46;102190.47;;;4.22;100.00
17525;BME280;40431;52.198;9.902;2024-01-27T01:41:15;102193.22;;;4.17;100.00
17525;BME280;40431;52.198;9.902;2024-01-27T01:43:43;102189.63;;;4.17;100.00
17525;BME280;40431;52.198;9.902;2024-01-27T01:46:10;102195.03;;;4.12;100.00
17525;BME280;40431;52.198;9.902;2024-01-27T01:48:39;102189.63;;;4.15;100.00
17525;BME280;40431;52.198;9.902;2024-01-27T01:51:09;102186.13;;;4.04;100.00
17525;BME280;40431;52.198;9.902;2024-01-27T01:53:37;102187.00;;;4.08;100.00
17525;BME280;40431;52.198;9.902;2024-01-27T01:56:08;102184.38;;;4.05;100.00
17525;BME280;40431;52.198;9.902;2024-01-27T01:58:38;102190.66;;;4.00;100.00
17525;BME280;40431;52.198;9.902;2024-01-27T02:01:10;102189.75;;;4.00;100.00
17525;BME280;40431;52.198;9.902;2024-01-27T02:04:03;102196.88;;;4.04;100.00
17525;BME280;40431;52.198;9.902;2024-01-27T02:06:32;102200.50;;;4.00;100.00
17525;BME280;40431;52.198;9.902;2024-01-27T02:09:01;102194.22;;;4.01;100.00
17525;BME280;40431;52.198;9.902;2024-01-27T02:11:29;102194.25;;;3.98;100.00
17525;BME280;40431;52.198;9.902;2024-01-27T02:14:06;102190.66;;;3.97;100.00
17525;BME280;40431;52.198;9.902;2024-01-27T02:16:40;102189.78;;;3.97;100.00
17525;BME280;40431;52.198;9.902;2024-01-27T02:19:09;102185.34;;;3.88;100.00
17525;BME280;40431;52.198;9.902;2024-01-27T02:21:36;102198.84;;;3.80;100.00
17525;BME280;40431;52.198;9.902;2024-01-27T02:24:11;102195.28;;;3.77;100.00
17525;BME280;40431;52.198;9.902;2024-01-27T02:26:39;102199.75;;;3.75;100.00
17525;BME280;40431;52.198;9.902;2024-01-27T02:29:07;102217.66;;;3.70;100.00
17525;BME280;40431;52.198;9.902;2024-01-27T02:31:34;102211.47;;;3.66;100.00
17525;BME280;40431;52.198;9.902;2024-01-27T02:34:05;102222.16;;;3.69;100.00
17525;BME280;40431;52.198;9.902;2024-01-27T02:36:34;102222.19;;;3.61;100.00
17525;BME280;40431;52.198;9.902;2024-01-27T02:39:02;102225.78;;;3.62;100.00
17525;BME280;40431;52.198;9.902;2024-01-27T02:41:31;102222.22;;;3.60;100.00
17525;BME280;40431;52.198;9.902;2024-01-27T02:44:04;102216.88;;;3.57;100.00
17525;BME280;40431;52.198;9.902;2024-01-27T02:46:32;102218.72;;;3.48;100.00
17525;BME280;40431;52.198;9.902;2024-01-27T02:49:04;102225.84;;;3.53;100.00
17525;BME280;40431;52.198;9.902;2024-01-27T02:51:35;102220.50;;;3.43;100.00
17525;BME280;40431;52.198;9.902;2024-01-27T02:54:03;102220.50;;;3.40;100.00
17525;BME280;40431;52.198;9.902;2024-01-27T02:56:33;102219.59;;;3.43;100.00
17525;BME280;40431;52.198;9.902;2024-01-27T02:59:02;102221.44;;;3.39;100.00
17525;BME280;40431;52.198;9.902;2024-01-27T03:01:30;102222.31;;;3.38;100.00
17525;BME280;40431;52.198;9.902;2024-01-27T03:04:01;102234.84;;;3.39;100.00
17525;BME280;40431;52.198;9.902;2024-01-27T03:06:29;102237.50;;;3.36;100.00
17525;BME280;40431;52.198;9.902;2024-01-27T03:09:01;102247.38;;;3.32;100.00
17525;BME280;40431;52.198;9.902;2024-01-27T03:11:29;102249.16;;;3.35;100.00
17525;BME280;40431;52.198;9.902;2024-01-27T03:13:58;102257.22;;;3.35;100.00
17525;BME280;40431;52.198;9.902;2024-01-27T03:16:27;102259.88;;;3.30;100.00
17525;BME280;40431;52.198;9.902;2024-01-27T03:18:55;102262.56;;;3.29;100.00
17525;BME280;40431;52.198;9.902;2024-01-27T03:21:24;102264.34;;;3.33;100.00
17525;BME280;40431;52.198;9.902;2024-01-27T03:23:52;102258.09;;;3.28;100.00
17525;BME280;40431;52.198;9.902;2024-01-27T03:26:23;102273.31;;;3.20;100.00
17525;BME280;40431;52.198;9.902;2024-01-27T03:28:51;102276.00;;;3.26;100.00
17525;BME280;40431;52.198;9.902;2024-01-27T03:31:20;102273.31;;;3.26;100.00
17525;BME280;40431;52.198;9.902;2024-01-27T03:33:48;102276.88;;;3.29;100.00
17525;BME280;40431;52.198;9.902;2024-01-27T03:36:16;102274.22;;;3.25;100.00
17525;BME280;40431;52.198;9.902;2024-01-27T03:38:46;102273.31;;;3.23;100.00
17525;BME280;40431;52.198;9.902;2024-01-27T03:41:22;102271.50;;;3.22;100.00
17525;BME280;40431;52.198;9.902;2024-01-27T03:43:55;102271.53;;;3.17;100.00
17525;BME280;40431;52.198;9.902;2024-01-27T03:46:24;102274.22;;;3.18;100.00
17525;BME280;40431;52.198;9.902;2024-01-27T03:48:52;102278.69;;;3.15;100.00
17525;BME280;40431;52.198;9.902;2024-01-27T03:51:23;102294.78;;;3.13;100.00
17525;BME280;40431;52.198;9.902;2024-01-27T03:53:54;102298.34;;;3.18;100.00
17525;BME280;40431;52.198;9.902;2024-01-27T03:56:22;102292.97;;;3.12;100.00
17525;BME280;40431;52.198;9.902;2024-01-27T03:58:51;102296.56;;;3.08;100.00
17525;BME280;40431;52.198;9.902;2024-01-27T04:01:19;102302.84;;;3.07;100.00
17525;BME280;40431;52.198;9.902;2024-01-27T04:03:51;102302.84;;;3.04;100.00
17525;BME280;40431;52.198;9.902;2024-01-27T04:06:21;102308.19;;;3.04;100.00
17525;BME280;40431;52.198;9.902;2024-01-27T04:08:50;102305.50;;;3.04;100.00
17525;BME280;40431;52.198;9.902;2024-01-27T04:11:21;102309.09;;;3.00;100.00
17525;BME280;40431;52.198;9.902;2024-01-27T04:13:50;102306.44;;;2.97;100.00
17525;BME280;40431;52.198;9.902;2024-01-27T04:16:21;102310.91;;;2.98;100.00
17525;BME280;40431;52.198;9.902;2024-01-27T04:18:50;102313.59;;;2.98;100.00
17525;BME280;40431;52.198;9.902;2024-01-27T04:21:25;102316.25;;;3.01;100.00
17525;BME280;40431;52.198;9.902;2024-01-27T04:23:54;102307.34;;;2.91;100.00
17525;BME280;40431;52.198;9.902;2024-01-27T04:26:22;102308.22;;;2.95;100.00
17525;BME280;40431;52.198;9.902;2024-01-27T04:28:49;102314.47;;;2.89;100.00
17525;BME280;40431;52.198;9.902;2024-01-27T04:31:17;102322.50;;;2.97;100.00
17525;BME280;40431;52.198;9.902;2024-01-27T04:33:45;102323.41;;;2.88;100.00
17525;BME280;40431;52.198;9.902;2024-01-27T04:36:14;102318.03;;;2.87;100.00
17525;BME280;40431;52.198;9.902;2024-01-27T04:38:43;102316.25;;;2.90;100.00
17525;BME280;40431;52.198;9.902;2024-01-27T04:41:21;102317.16;;;2.84;100.00
17525;BME280;40431;52.198;9.902;2024-01-27T04:43:48;102316.28;;;2.81;100.00
17525;BME280;40431;52.198;9.902;2024-01-27T04:46:17;102320.75;;;2.83;100.00
17525;BME280;40431;52.198;9.902;2024-01-27T04:48:44;102312.72;;;2.82;100.00
17525;BME280;40431;52.198;9.902;2024-01-27T04:51:14;102320.72;;;2.77;100.00
17525;BME280;40431;52.198;9.902;2024-01-27T04:53:41;102318.97;;;2.79;100.00
17525;BME280;40431;52.198;9.902;2024-01-27T04:56:09;102329.66;;;2.78;100.00
17525;BME280;40431;52.198;9.902;2024-01-27T04:58:41;102330.56;;;2.75;100.00
17525;BME280;40431;52.198;9.902;2024-01-27T05:01:12;102341.25;;;2.71;100.00
17525;BME280;40431;52.198;9.902;2024-01-27T05:03:40;102344.84;;;2.66;100.00
17525;BME280;40431;52.198;9.902;2024-01-27T05:06:08;102345.75;;;2.70;100.00
17525;BME280;40431;52.198;9.902;2024-01-27T05:08:37;102351.97;;;2.71;100.00
17525;BME280;40431;52.198;9.902;2024-01-27T05:11:06;102360.03;;;2.80;100.00
17525;BME280;40431;52.198;9.902;2024-01-27T05:13:34;102352.91;;;2.73;100.00
17525;BME280;40431;52.198;9.902;2024-01-27T05:16:01;102360.91;;;2.70;100.00
17525;BME280;40431;52.198;9.902;2024-01-27T05:18:32;102360.94;;;2.73;100.00
17525;BME280;40431;52.198;9.902;2024-01-27T05:21:01;102371.63;;;2.71;100.00
17525;BME280;40431;52.198;9.902;2024-01-27T05:23:29;102368.94;;;2.71;100.00
17525;BME280;40431;52.198;9.902;2024-01-27T05:26:07;102372.50;;;2.67;100.00
17525;BME280;40431;52.198;9.902;2024-01-27T05:28:36;102374.31;;;2.65;100.00
17525;BME280;40431;52.198;9.902;2024-01-27T05:31:03;102374.31;;;2.63;100.00
17525;BME280;40431;52.198;9.902;2024-01-27T05:33:31;102381.44;;;2.69;100.00
17525;BME280;40431;52.198;9.902;2024-01-27T05:35:58;102388.59;;;2.70;100.00
17525;BME280;40431;52.198;9.902;2024-01-27T05:38:26;102384.13;;;2.74;100.00
17525;BME280;40431;52.198;9.902;2024-01-27T05:40:55;102384.13;;;2.74;100.00
17525;BME280;40431;52.198;9.902;2024-01-27T05:43:25;102384.16;;;2.77;100.00
17525;BME280;40431;52.198;9.902;2024-01-27T05:45:53;102370.72;;;2.72;100.00
17525;BME280;40431;52.198;9.902;2024-01-27T05:48:21;102374.31;;;2.68;100.00
17525;BME280;40431;52.198;9.902;2024-01-27T05:50:55;102375.19;;;2.65;100.00
17525;BME280;40431;52.198;9.902;2024-01-27T05:53:23;102385.03;;;2.65;100.00
17525;BME280;40431;52.198;9.902;2024-01-27T05:55:51;102383.22;;;2.64;100.00
17525;BME280;40431;52.198;9.902;2024-01-27T05:58:18;102385.00;;;2.62;100.00
17525;BME280;40431;52.198;9.902;2024-01-27T06:00:48;102392.16;;;2.63;100.00
17525;BME280;40431;52.198;9.902;2024-01-27T06:03:16;102393.94;;;2.55;100.00
17525;BME280;40431;52.198;9.902;2024-01-27T06:05:47;102397.50;;;2.58;100.00
17525;BME280;40431;52.198;9.902;2024-01-27T06:08:18;102399.31;;;2.61;100.00
17525;BME280;40431;52.198;9.902;2024-01-27T06:10:46;102411.78;;;2.59;100.00
17525;BME280;40431;52.198;9.902;2024-01-27T06:13:13;102404.63;;;2.58;100.00
17525;BME280;40431;52.198;9.902;2024-01-27T06:15:42;102407.34;;;2.59;100.00
17525;BME280;40431;52.198;9.902;2024-01-27T06:18:11;102404.66;;;2.61;100.00
17525;BME280;40431;52.198;9.902;2024-01-27T06:20:38;102408.25;;;2.66;100.00
17525;BME280;40431;52.198;9.902;2024-01-27T06:23:09;102404.66;;;2.64;100.00
17525;BME280;40431;52.198;9.902;2024-01-27T06:25:37;102411.81;;;2.68;100.00
17525;BME280;40431;52.198;9.902;2024-01-27T06:28:05;102420.72;;;2.64;100.00
17525;BME280;40431;52.198;9.902;2024-01-27T06:30:33;102416.28;;;2.66;100.00
17525;BME280;40431;52.198;9.902;2024-01-27T06:33:01;102417.16;;;2.68;100.00
17525;BME280;40431;52.198;9.902;2024-01-27T06:35:30;102422.53;;;2.65;100.00
17525;BME280;40431;52.198;9.902;2024-01-27T06:37:57;102416.25;;;2.64;100.00
17525;BME280;40431;52.198;9.902;2024-01-27T06:40:26;102413.59;;;2.66;100.00
17525;BME280;40431;52.198;9.902;2024-01-27T06:42:54;102416.28;;;2.66;100.00
17525;BME280;40431;52.198;9.902;2024-01-27T06:45:25;102414.50;;;2.63;100.00
17525;BME280;40431;52.198;9.902;2024-01-27T06:48:07;102412.69;;;2.68;100.00
17525;BME280;40431;52.198;9.902;2024-01-27T06:50:37;102427.88;;;2.68;100.00
17525;BME280;40431;52.198;9.902;2024-01-27T06:53:05;102431.44;;;2.67;100.00
17525;BME280;40431;52.198;9.902;2024-01-27T06:55:41;102435.03;;;2.66;100.00
17525;BME280;40431;52.198;9.902;2024-01-27T06:58:10;102448.41;;;2.67;100.00
17525;BME280;40431;52.198;9.902;2024-01-27T07:00:42;102453.78;;;2.66;100.00
17525;BME280;40431;52.198;9.902;2024-01-27T07:03:15;102455.56;;;2.61;100.00
17525;BME280;40431;52.198;9.902;2024-01-27T07:05:45;102451.97;;;2.57;100.00
17525;BME280;40431;52.198;9.902;2024-01-27T07:08:13;102460.88;;;2.56;100.00
17525;BME280;40431;52.198;9.902;2024-01-27T07:10:41;102452.88;;;2.61;100.00
17525;BME280;40431;52.198;9.902;2024-01-27T07:13:12;102441.25;;;2.57;100.00
17525;BME280;40431;52.198;9.902;2024-01-27T07:15:45;102447.50;;;2.52;100.00
17525;BME280;40431;52.198;9.902;2024-01-27T07:18:13;102443.00;;;2.49;100.00
17525;BME280;40431;52.198;9.902;2024-01-27T07:20:45;102449.25;;;2.49;100.00
17525;BME280;40431;52.198;9.902;2024-01-27T07:23:13;102451.94;;;2.51;100.00
17525;BME280;40431;52.198;9.902;2024-01-27T07:25:43;102456.41;;;2.50;100.00
17525;BME280;40431;52.198;9.902;2024-01-27T07:28:11;102463.56;;;2.53;100.00
17525;BME280;40431;52.198;9.902;2024-01-27T07:30:38;102469.81;;;2.57;100.00
17525;BME280;40431;52.198;9.902;2024-01-27T07:33:06;102466.22;;;2.55;100.00
17525;BME280;40431;52.198;9.902;2024-01-27T07:35:37;102472.47;;;2.54;100.00
17525;BME280;40431;52.198;9.902;2024-01-27T07:38:10;102467.16;;;2.58;100.00
17525;BME280;40431;52.198;9.902;2024-01-27T07:40:42;102464.47;;;2.60;100.00
17525;BME280;40431;52.198;9.902;2024-01-27T07:43:10;102464.47;;;2.61;100.00
17525;BME280;40431;52.198;9.902;2024-01-27T07:45:37;102474.28;;;2.61;100.00
17525;BME280;40431;52.198;9.902;2024-01-27T07:48:05;102483.22;;;2.58;100.00
17525;BME280;40431;52.198;9.902;2024-01-27T07:50:33;102488.56;;;2.57;100.00
17525;BME280;40431;52.198;9.902;2024-01-27T07:53:01;102495.69;;;2.58;100.00
17525;BME280;40431;52.198;9.902;2024-01-27T07:55:30;102494.81;;;2.56;100.00
17525;BME280;40431;52.198;9.902;2024-01-27T07:57:57;102490.38;;;2.59;100.00
17525;BME280;40431;52.198;9.902;2024-01-27T08:00:25;102488.56;;;2.57;100.00
17525;BME280;40431;52.198;9.902;2024-01-27T08:02:53;102493.03;;;2.64;100.00
17525;BME280;40431;52.198;9.902;2024-01-27T08:05:21;102497.47;;;2.62;100.00
17525;BME280;40431;52.198;9.902;2024-01-27T08:07:49;102493.03;;;2.59;100.00
17525;BME280;40431;52.198;9.902;2024-01-27T08:10:20;102502.84;;;2.62;100.00
17525;BME280;40431;52.198;9.902;2024-01-27T08:12:53;102502.84;;;2.62;100.00
17525;BME280;40431;52.198;9.902;2024-01-27T08:15:22;102505.56;;;2.65;100.00
17525;BME280;40431;52.198;9.902;2024-01-27T08:17:56;102510.91;;;2.71;100.00
17525;BME280;40431;52.198;9.902;2024-01-27T08:20:25;102514.50;;;2.73;100.00
17525;BME280;40431;52.198;9.902;2024-01-27T08:22:55;102508.22;;;2.71;100.00
17525;BME280;40431;52.198;9.902;2024-01-27T08:25:26;102497.53;;;2.74;100.00
17525;BME280;40431;52.198;9.902;2024-01-27T08:27:56;102519.00;;;2.83;100.00
17525;BME280;40431;52.198;9.902;2024-01-27T08:30:25;102511.88;;;2.89;100.00
17525;BME280;40431;52.198;9.902;2024-01-27T08:32:58;102511.88;;;2.93;100.00
17525;BME280;40431;52.198;9.902;2024-01-27T08:35:27;102518.13;;;2.98;100.00
17525;BME280;40431;52.198;9.902;2024-01-27T08:37:58;102513.66;;;2.96;100.00
17525;BME280;40431;52.198;9.902;2024-01-27T08:40:28;102516.34;;;3.07;100.00
17525;BME280;40431;52.198;9.902;2024-01-27T08:43:18;102521.72;;;3.08;100.00
17525;BME280;40431;52.198;9.902;2024-01-27T08:45:46;102517.28;;;3.10;100.00
17525;BME280;40431;52.198;9.902;2024-01-27T08:48:17;102527.97;;;3.15;100.00
17525;BME280;40431;52.198;9.902;2024-01-27T08:50:56;102526.22;;;3.18;100.00
17525;BME280;40431;52.198;9.902;2024-01-27T08:53:34;102524.41;;;3.19;100.00
17525;BME280;40431;52.198;9.902;2024-01-27T08:56:02;102529.81;;;3.30;100.00
17525;BME280;40431;52.198;9.902;2024-01-27T08:58:35;102526.22;;;3.36;100.00
17525;BME280;40431;52.198;9.902;2024-01-27T09:01:15;102534.28;;;3.42;100.00
17525;BME280;40431;52.198;9.902;2024-01-27T09:03:43;102539.63;;;3.48;100.00
17525;BME280;40431;52.198;9.902;2024-01-27T09:06:16;102542.31;;;3.49;100.00
17525;BME280;40431;52.198;9.902;2024-01-27T09:08:54;102541.44;;;3.49;100.00
17525;BME280;40431;52.198;9.902;2024-01-27T09:11:22;102536.94;;;3.49;100.00
17525;BME280;40431;52.198;9.902;2024-01-27T09:13:57;102538.75;;;3.57;100.00
17525;BME280;40431;52.198;9.902;2024-01-27T09:16:27;102536.97;;;3.56;100.00
17525;BME280;40431;52.198;9.902;2024-01-27T09:19:00;102531.59;;;3.59;100.00
17525;BME280;40431;52.198;9.902;2024-01-27T09:21:32;102538.75;;;3.60;100.00
17525;BME280;40431;52.198;9.902;2024-01-27T09:24:04;102554.84;;;3.66;100.00
17525;BME280;40431;52.198;9.902;2024-01-27T09:26:31;102548.59;;;3.67;100.00
17525;BME280;40431;52.198;9.902;2024-01-27T09:29:09;102562.00;;;3.70;100.00
17525;BME280;40431;52.198;9.902;2024-01-27T09:31:47;102551.28;;;3.70;100.00
17525;BME280;40431;52.198;9.902;2024-01-27T09:34:15;102551.25;;;3.73;100.00
17525;BME280;40431;52.198;9.902;2024-01-27T09:36:52;102550.38;;;3.82;100.00
17525;BME280;40431;52.198;9.902;2024-01-27T09:39:23;102545.88;;;3.85;100.00
17525;BME280;40431;52.198;9.902;2024-01-27T09:41:54;102552.16;;;3.92;100.00
17525;BME280;40431;52.198;9.902;2024-01-27T09:44:28;102553.94;;;3.99;100.00
17525;BME280;40431;52.198;9.902;2024-01-27T09:46:56;102560.19;;;4.03;100.00
17525;BME280;40431;52.198;9.902;2024-01-27T09:49:29;102557.50;;;4.06;100.00
17525;BME280;40431;52.198;9.902;2024-01-27T09:51:59;102569.13;;;4.11;100.00
17525;BME280;40431;52.198;9.902;2024-01-27T09:54:29;102582.53;;;4.19;100.00
17525;BME280;40431;52.198;9.902;2024-01-27T09:57:04;102572.66;;;4.29;100.00
17525;BME280;40431;52.198;9.902;2024-01-27T09:59:35;102569.09;;;4.30;100.00
17525;BME280;40431;52.198;9.902;2024-01-27T10:02:06;102570.84;;;4.34;100.00
17525;BME280;40431;52.198;9.902;2024-01-27T10:04:47;102575.34;;;4.33;100.00
17525;BME280;40431;52.198;9.902;2024-01-27T10:07:20;102570.88;;;4.31;100.00
17525;BME280;40431;52.198;9.902;2024-01-27T10:09:55;102561.91;;;4.29;100.00
17525;BME280;40431;52.198;9.902;2024-01-27T10:12:30;102569.94;;;4.40;100.00
17525;BME280;40431;52.198;9.902;2024-01-27T10:15:00;102579.78;;;4.42;100.00
17525;BME280;40431;52.198;9.902;2024-01-27T10:17:34;102578.91;;;4.43;100.00
17525;BME280;40431;52.198;9.902;2024-01-27T10:20:08;102577.09;;;4.47;100.00
17525;BME280;40431;52.198;9.902;2024-01-27T10:22:44;102573.50;;;4.51;100.00
17525;BME280;40431;52.198;9.902;2024-01-27T10:25:13;102585.13;;;4.51;100.00
17525;BME280;40431;52.198;9.902;2024-01-27T10:27:45;102577.97;;;4.54;100.00
17525;BME280;40431;52.198;9.902;2024-01-27T10:30:20;102585.09;;;4.55;100.00
17525;BME280;40431;52.198;9.902;2024-01-27T10:33:00;102587.78;;;4.62;100.00
17525;BME280;40431;52.198;9.902;2024-01-27T10:35:31;102591.38;;;4.64;100.00
17525;BME280;40431;52.198;9.902;2024-01-27T10:37:59;102598.47;;;4.73;100.00
17525;BME280;40431;52.198;9.902;2024-01-27T10:40:32;102602.97;;;4.74;100.00
17525;BME280;40431;52.198;9.902;2024-01-27T10:43:06;102588.59;;;4.78;100.00
17525;BME280;40431;52.198;9.902;2024-01-27T10:45:44;102587.69;;;4.81;100.00
17525;BME280;40431;52.198;9.902;2024-01-27T10:48:14;102589.47;;;4.90;100.00
17525;BME280;40431;52.198;9.902;2024-01-27T10:50:45;102576.97;;;4.84;100.00
17525;BME280;40431;52.198;9.902;2024-01-27T10:53:25;102572.47;;;4.84;100.00
17525;BME280;40431;52.198;9.902;2024-01-27T10:56:03;102577.78;;;4.94;100.00
17525;BME280;40431;52.198;9.902;2024-01-27T10:58:35;102586.75;;;4.93;100.00
17525;BME280;40431;52.198;9.902;2024-01-27T11:01:10;102594.81;;;4.97;100.00
17525;BME280;40431;52.198;9.902;2024-01-27T11:03:52;102588.50;;;5.03;100.00
17525;BME280;40431;52.198;9.902;2024-01-27T11:06:41;102580.41;;;5.06;100.00
17525;BME280;40431;52.198;9.902;2024-01-27T11:09:19;102577.72;;;5.11;100.00
17525;BME280;40431;52.198;9.902;2024-01-27T11:12:09;102558.88;;;5.12;100.00
17525;BME280;40431;52.198;9.902;2024-01-27T11:14:51;102560.66;;;5.12;100.00
17525;BME280;40431;52.198;9.902;2024-01-27T11:17:30;102564.22;;;5.20;100.00
17525;BME280;40431;52.198;9.902;2024-01-27T11:20:11;102556.13;;;5.22;100.00
17525;BME280;40431;52.198;9.902;2024-01-27T11:22:44;102553.41;;;5.23;100.00
17525;BME280;40431;52.198;9.902;2024-01-27T11:25:18;102544.41;;;5.27;100.00
17525;BME280;40431;52.198;9.902;2024-01-27T11:27:49;102553.34;;;5.34;100.00
17525;BME280;40431;52.198;9.902;2024-01-27T11:30:31;102556.00;;;5.40;100.00
17525;BME280;40431;52.198;9.902;2024-01-27T11:33:07;102546.13;;;5.44;100.00
17525;BME280;40431;52.198;9.902;2024-01-27T11:35:45;102551.47;;;5.47;100.00
17525;BME280;40431;52.198;9.902;2024-01-27T11:38:37;102542.47;;;5.51;100.00
17525;BME280;40431;52.198;9.902;2024-01-27T11:41:07;102546.88;;;5.57;100.00
17525;BME280;40431;52.198;9.902;2024-01-27T11:43:41;102552.22;;;5.63;100.00
17525;BME280;40431;52.198;9.902;2024-01-27T11:46:32;102563.78;;;5.76;100.00
17525;BME280;40431;52.198;9.902;2024-01-27T11:49:22;102556.63;;;5.73;100.00
17525;BME280;40431;52.198;9.902;2024-01-27T11:51:58;102565.53;;;5.78;100.00
17525;BME280;40431;52.198;9.902;2024-01-27T11:54:32;102563.75;;;5.80;100.00
17525;BME280;40431;52.198;9.902;2024-01-27T11:57:04;102555.63;;;5.83;100.00
17525;BME280;40431;52.198;9.902;2024-01-27T11:59:40;102569.94;;;5.89;100.00
17525;BME280;40431;52.198;9.902;2024-01-27T12:02:12;102561.84;;;5.93;100.00
17525;BME280;40431;52.198;9.902;2024-01-27T12:04:43;102562.72;;;5.98;100.00
17525;BME280;40431;52.198;9.902;2024-01-27T12:07:11;102568.94;;;6.05;100.00
17525;BME280;40431;52.198;9.902;2024-01-27T12:09:39;102555.47;;;6.02;100.00
17525;BME280;40431;52.198;9.902;2024-01-27T12:12:08;102557.25;;;6.05;100.00
17525;BME280;40431;52.198;9.902;2024-01-27T12:14:40;102557.22;;;6.09;100.00
17525;BME280;40431;52.198;9.902;2024-01-27T12:17:10;102555.38;;;6.14;100.00
17525;BME280;40431;52.198;9.902;2024-01-27T12:19:47;102559.84;;;6.17;100.00
17525;BME280;40431;52.198;9.902;2024-01-27T12:22:22;102560.66;;;6.24;100.00
17525;BME280;40431;52.198;9.902;2024-01-27T12:24:52;102561.56;;;6.23;100.00
17525;BME280;40431;52.198;9.902;2024-01-27T12:27:24;102551.69;;;6.22;100.00
17525;BME280;40431;52.198;9.902;2024-01-27T12:29:52;102549.91;;;6.21;100.00
17525;BME280;40431;52.198;9.902;2024-01-27T12:32:20;102554.38;;;6.23;100.00
17525;BME280;40431;52.198;9.902;2024-01-27T12:34:49;102546.31;;;6.22;100.00
17525;BME280;40431;52.198;9.902;2024-01-27T12:37:17;102545.38;;;6.26;100.00
17525;BME280;40431;52.198;9.902;2024-01-27T12:39:45;102556.97;;;6.31;100.00
17525;BME280;40431;52.198;9.902;2024-01-27T12:42:13;102542.63;;;6.29;100.00
17525;BME280;40431;52.198;9.902;2024-01-27T12:44:46;102555.19;;;6.33;100.00
17525;BME280;40431;52.198;9.902;2024-01-27T12:47:17;102553.38;;;6.33;100.00
17525;BME280;40431;52.198;9.902;2024-01-27T12:49:48;102550.66;;;6.33;100.00
17525;BME280;40431;52.198;9.902;2024-01-27T12:52:15;102551.53;;;6.37;100.00
17525;BME280;40431;52.198;9.902;2024-01-27T12:54:43;102553.34;;;6.35;100.00
17525;BME280;40431;52.198;9.902;2024-01-27T12:57:11;102570.38;;;6.39;100.00
17525;BME280;40431;52.198;9.902;2024-01-27T12:59:39;102567.66;;;6.40;100.00
17525;BME280;40431;52.198;9.902;2024-01-27T13:02:07;102571.25;;;6.39;100.00
17525;BME280;40431;52.198;9.902;2024-01-27T13:04:41;102564.91;;;6.43;100.00
17525;BME280;40431;52.198;9.902;2024-01-27T13:07:14;102572.06;;;6.47;100.00
17525;BME280;40431;52.198;9.902;2024-01-27T13:09:45;102562.25;;;6.42;100.00